sensor_id;sensor_type;location;lat;lon;timestamp;P1;durP1;ratioP1;P2;durP2;ratioP2
60588;SDS011;46421;48.610;9.334;2023-03-19T00:00:39;9.05;;;2.95;;
60588;SDS011;46421;48.610;9.334;2023-03-19T00:03:05;7.13;;;3.38;;
60588;SDS011;46421;48.610;9.334;2023-03-19T00:05:30;9.20;;;3.33;;
60588;SDS011;46421;48.610;9.334;2023-03-19T00:07:55;8.17;;;2.93;;
60588;SDS011;46421;48.610;9.334;2023-03-19T00:10:21;10.05;;;3.38;;
60588;SDS011;46421;48.610;9.334;2023-03-19T00:12:46;7.87;;;2.83;;
60588;SDS011;46421;48.610;9.334;2023-03-19T00:15:11;7.27;;;2.63;;
60588;SDS011;46421;48.610;9.334;2023-03-19T00:17:38;7.07;;;2.80;;
60588;SDS011;46421;48.610;9.334;2023-03-19T00:20:04;7.53;;;2.88;;
60588;SDS011;46421;48.610;9.334;2023-03-19T00:22:30;7.78;;;3.03;;
60588;SDS011;46421;48.610;9.334;2023-03-19T00:24:55;9.77;;;2.73;;
60588;SDS011;46421;48.610;9.334;2023-03-19T00:27:20;8.90;;;3.00;;
60588;SDS011;46421;48.610;9.334;2023-03-19T00:29:46;7.10;;;3.67;;
60588;SDS011;46421;48.610;9.334;2023-03-19T00:32:11;9.30;;;3.27;;
60588;SDS011;46421;48.610;9.334;2023-03-19T00:34:36;7.68;;;3.05;;
60588;SDS011;46421;48.610;9.334;2023-03-19T00:37:02;11.53;;;3.87;;
60588;SDS011;46421;48.610;9.334;2023-03-19T00:39:27;8.43;;;2.97;;
60588;SDS011;46421;48.610;9.334;2023-03-19T00:41:52;8.73;;;2.97;;
60588;SDS011;46421;48.610;9.334;2023-03-19T00:44:19;6.55;;;3.35;;
60588;SDS011;46421;48.610;9.334;2023-03-19T00:46:45;8.60;;;3.28;;
60588;SDS011;46421;48.610;9.334;2023-03-19T00:49:10;6.85;;;3.08;;
60588;SDS011;46421;48.610;9.334;2023-03-19T00:51:36;7.85;;;3.35;;
60588;SDS011;46421;48.610;9.334;2023-03-19T00:54:01;7.43;;;3.00;;
60588;SDS011;46421;48.610;9.334;2023-03-19T00:56:27;11.73;;;3.50;;
60588;SDS011;46421;48.610;9.334;2023-03-19T00:58:52;8.83;;;3.47;;
60588;SDS011;46421;48.610;9.334;2023-03-19T01:01:20;8.13;;;3.30;;
60588;SDS011;46421;48.610;9.334;2023-03-19T01:03:46;6.32;;;2.75;;
60588;SDS011;46421;48.610;9.334;2023-03-19T01:06:11;6.22;;;2.92;;
60588;SDS011;46421;48.610;9.334;2023-03-19T01:08:37;8.57;;;3.08;;
60588;SDS011;46421;48.610;9.334;2023-03-19T01:11:12;7.63;;;2.88;;
60588;SDS011;46421;48.610;9.334;2023-03-19T01:13:39;8.85;;;2.97;;
60588;SDS011;46421;48.610;9.334;2023-03-19T01:16:06;7.30;;;3.00;;
60588;SDS011;46421;48.610;9.334;2023-03-19T01:18:32;6.28;;;2.67;;
60588;SDS011;46421;48.610;9.334;2023-03-19T01:20:57;8.38;;;3.17;;
60588;SDS011;46421;48.610;9.334;2023-03-19T01:23:23;10.03;;;3.77;;
60588;SDS011;46421;48.610;9.334;2023-03-19T01:25:48;6.38;;;3.08;;
60588;SDS011;46421;48.610;9.334;2023-03-19T01:28:13;8.88;;;2.97;;
60588;SDS011;46421;48.610;9.334;2023-03-19T01:30:39;7.35;;;2.83;;
60588;SDS011;46421;48.610;9.334;2023-03-19T01:33:05;6.75;;;2.95;;
60588;SDS011;46421;48.610;9.334;2023-03-19T01:35:30;5.47;;;2.28;;
60588;SDS011;46421;48.610;9.334;2023-03-19T01:37:56;6.87;;;2.03;;
60588;SDS011;46421;48.610;9.334;2023-03-19T01:40:21;6.97;;;2.67;;
60588;SDS011;46421;48.610;9.334;2023-03-19T01:42:51;6.93;;;2.50;;
60588;SDS011;46421;48.610;9.334;2023-03-19T01:45:31;7.60;;;2.65;;
60588;SDS011;46421;48.610;9.334;2023-03-19T01:47:58;6.15;;;2.28;;
60588;SDS011;46421;48.610;9.334;2023-03-19T01:50:33;8.25;;;3.00;;
60588;SDS011;46421;48.610;9.334;2023-03-19T01:53:04;7.18;;;2.53;;
60588;SDS011;46421;48.610;9.334;2023-03-19T01:55:31;6.85;;;2.25;;
60588;SDS011;46421;48.610;9.334;2023-03-19T01:57:56;5.90;;;2.30;;
60588;SDS011;46421;48.610;9.334;2023-03-19T02:00:22;6.13;;;2.53;;
60588;SDS011;46421;48.610;9.334;2023-03-19T02:02:48;6.50;;;2.67;;
60588;SDS011;46421;48.610;9.334;2023-03-19T02:05:17;8.90;;;2.70;;
60588;SDS011;46421;48.610;9.334;2023-03-19T02:07:49;8.00;;;2.42;;
60588;SDS011;46421;48.610;9.334;2023-03-19T02:10:17;7.07;;;2.70;;
60588;SDS011;46421;48.610;9.334;2023-03-19T02:12:44;6.63;;;2.45;;
60588;SDS011;46421;48.610;9.334;2023-03-19T02:15:10;7.20;;;2.90;;
60588;SDS011;46421;48.610;9.334;2023-03-19T02:17:36;6.32;;;2.33;;
60588;SDS011;46421;48.610;9.334;2023-03-19T02:20:21;5.32;;;2.45;;
60588;SDS011;46421;48.610;9.334;2023-03-19T02:23:10;6.55;;;2.38;;
60588;SDS011;46421;48.610;9.334;2023-03-19T02:28:13;5.63;;;2.25;;
60588;SDS011;46421;48.610;9.334;2023-03-19T02:30:41;6.38;;;2.50;;
60588;SDS011;46421;48.610;9.334;2023-03-19T02:35:36;5.70;;;2.28;;
60588;SDS011;46421;48.610;9.334;2023-03-19T02:38:02;4.72;;;1.90;;
60588;SDS011;46421;48.610;9.334;2023-03-19T02:40:29;4.40;;;2.22;;
60588;SDS011;46421;48.610;9.334;2023-03-19T02:43:00;4.75;;;2.25;;
60588;SDS011;46421;48.610;9.334;2023-03-19T02:45:27;5.22;;;2.42;;
60588;SDS011;46421;48.610;9.334;2023-03-19T02:47:53;4.78;;;1.95;;
60588;SDS011;46421;48.610;9.334;2023-03-19T02:50:19;6.90;;;2.40;;
60588;SDS011;46421;48.610;9.334;2023-03-19T02:52:44;5.83;;;2.50;;
60588;SDS011;46421;48.610;9.334;2023-03-19T02:55:09;5.93;;;2.85;;
60588;SDS011;46421;48.610;9.334;2023-03-19T02:57:35;4.95;;;2.13;;
60588;SDS011;46421;48.610;9.334;2023-03-19T03:00:00;8.05;;;2.30;;
60588;SDS011;46421;48.610;9.334;2023-03-19T03:02:26;5.85;;;2.28;;
60588;SDS011;46421;48.610;9.334;2023-03-19T03:04:51;5.70;;;2.47;;
60588;SDS011;46421;48.610;9.334;2023-03-19T03:07:17;6.85;;;2.65;;
60588;SDS011;46421;48.610;9.334;2023-03-19T03:09:42;8.50;;;2.60;;
60588;SDS011;46421;48.610;9.334;2023-03-19T03:12:08;5.10;;;2.10;;
60588;SDS011;46421;48.610;9.334;2023-03-19T03:14:33;5.60;;;2.30;;
60588;SDS011;46421;48.610;9.334;2023-03-19T03:16:59;6.63;;;2.53;;
60588;SDS011;46421;48.610;9.334;2023-03-19T03:19:24;7.22;;;2.40;;
60588;SDS011;46421;48.610;9.334;2023-03-19T03:21:50;6.22;;;2.40;;
60588;SDS011;46421;48.610;9.334;2023-03-19T03:24:16;6.18;;;2.88;;
60588;SDS011;46421;48.610;9.334;2023-03-19T03:26:41;6.82;;;2.65;;
60588;SDS011;46421;48.610;9.334;2023-03-19T03:29:06;4.97;;;2.27;;
60588;SDS011;46421;48.610;9.334;2023-03-19T03:31:32;7.60;;;2.53;;
60588;SDS011;46421;48.610;9.334;2023-03-19T03:33:58;5.90;;;2.30;;
60588;SDS011;46421;48.610;9.334;2023-03-19T03:36:24;4.90;;;2.05;;
60588;SDS011;46421;48.610;9.334;2023-03-19T03:38:51;4.78;;;1.88;;
60588;SDS011;46421;48.610;9.334;2023-03-19T03:41:17;6.43;;;2.28;;
60588;SDS011;46421;48.610;9.334;2023-03-19T03:43:43;5.18;;;2.67;;
60588;SDS011;46421;48.610;9.334;2023-03-19T03:46:08;6.30;;;2.50;;
60588;SDS011;46421;48.610;9.334;2023-03-19T03:48:34;5.93;;;2.23;;
60588;SDS011;46421;48.610;9.334;2023-03-19T03:51:00;6.15;;;2.00;;
60588;SDS011;46421;48.610;9.334;2023-03-19T03:53:25;4.68;;;2.28;;
60588;SDS011;46421;48.610;9.334;2023-03-19T03:55:51;8.35;;;2.38;;
60588;SDS011;46421;48.610;9.334;2023-03-19T03:58:16;8.00;;;2.50;;
60588;SDS011;46421;48.610;9.334;2023-03-19T04:00:42;5.65;;;2.03;;
60588;SDS011;46421;48.610;9.334;2023-03-19T04:03:07;5.95;;;2.10;;
60588;SDS011;46421;48.610;9.334;2023-03-19T04:05:33;5.47;;;2.28;;
60588;SDS011;46421;48.610;9.334;2023-03-19T04:07:58;3.75;;;1.95;;
60588;SDS011;46421;48.610;9.334;2023-03-19T04:10:24;5.97;;;2.30;;
60588;SDS011;46421;48.610;9.334;2023-03-19T04:12:49;5.07;;;2.03;;
60588;SDS011;46421;48.610;9.334;2023-03-19T04:15:15;7.45;;;2.20;;
60588;SDS011;46421;48.610;9.334;2023-03-19T04:17:41;6.60;;;2.40;;
60588;SDS011;46421;48.610;9.334;2023-03-19T04:20:06;5.97;;;2.25;;
60588;SDS011;46421;48.610;9.334;2023-03-19T04:22:34;5.13;;;2.10;;
60588;SDS011;46421;48.610;9.334;2023-03-19T04:24:59;5.75;;;2.08;;
60588;SDS011;46421;48.610;9.334;2023-03-19T04:27:24;8.00;;;2.58;;
60588;SDS011;46421;48.610;9.334;2023-03-19T04:29:50;5.43;;;2.67;;
60588;SDS011;46421;48.610;9.334;2023-03-19T04:32:15;5.95;;;2.15;;
60588;SDS011;46421;48.610;9.334;2023-03-19T04:34:41;5.82;;;2.20;;
60588;SDS011;46421;48.610;9.334;2023-03-19T04:37:06;6.13;;;2.70;;
60588;SDS011;46421;48.610;9.334;2023-03-19T04:39:34;4.43;;;2.40;;
60588;SDS011;46421;48.610;9.334;2023-03-19T04:42:00;5.22;;;2.22;;
60588;SDS011;46421;48.610;9.334;2023-03-19T04:44:25;3.70;;;2.10;;
60588;SDS011;46421;48.610;9.334;2023-03-19T04:46:51;5.15;;;2.15;;
60588;SDS011;46421;48.610;9.334;2023-03-19T04:49:16;4.90;;;2.38;;
60588;SDS011;46421;48.610;9.334;2023-03-19T04:51:41;5.70;;;2.17;;
60588;SDS011;46421;48.610;9.334;2023-03-19T04:54:07;6.13;;;2.20;;
60588;SDS011;46421;48.610;9.334;2023-03-19T04:56:33;5.43;;;2.25;;
60588;SDS011;46421;48.610;9.334;2023-03-19T04:58:58;6.10;;;2.30;;
60588;SDS011;46421;48.610;9.334;2023-03-19T05:01:23;4.18;;;2.13;;
60588;SDS011;46421;48.610;9.334;2023-03-19T05:03:49;6.00;;;2.20;;
60588;SDS011;46421;48.610;9.334;2023-03-19T05:06:14;5.35;;;2.47;;
60588;SDS011;46421;48.610;9.334;2023-03-19T05:08:41;6.15;;;2.30;;
60588;SDS011;46421;48.610;9.334;2023-03-19T05:11:06;4.90;;;2.10;;
60588;SDS011;46421;48.610;9.334;2023-03-19T05:13:32;6.30;;;2.30;;
60588;SDS011;46421;48.610;9.334;2023-03-19T05:15:57;7.13;;;2.72;;
60588;SDS011;46421;48.610;9.334;2023-03-19T05:18:23;7.40;;;2.50;;
60588;SDS011;46421;48.610;9.334;2023-03-19T05:20:48;5.55;;;2.50;;
60588;SDS011;46421;48.610;9.334;2023-03-19T05:23:14;6.72;;;2.55;;
60588;SDS011;46421;48.610;9.334;2023-03-19T05:25:39;5.57;;;2.58;;
60588;SDS011;46421;48.610;9.334;2023-03-19T05:28:05;6.78;;;2.63;;
60588;SDS011;46421;48.610;9.334;2023-03-19T05:30:32;6.53;;;2.75;;
60588;SDS011;46421;48.610;9.334;2023-03-19T05:32:58;6.80;;;3.00;;
60588;SDS011;46421;48.610;9.334;2023-03-19T05:35:24;9.10;;;3.25;;
60588;SDS011;46421;48.610;9.334;2023-03-19T05:37:51;7.43;;;2.88;;
60588;SDS011;46421;48.610;9.334;2023-03-19T05:40:17;5.32;;;2.67;;
60588;SDS011;46421;48.610;9.334;2023-03-19T05:42:42;6.05;;;2.72;;
60588;SDS011;46421;48.610;9.334;2023-03-19T05:45:07;6.37;;;2.87;;
60588;SDS011;46421;48.610;9.334;2023-03-19T05:47:33;7.03;;;3.03;;
60588;SDS011;46421;48.610;9.334;2023-03-19T05:49:59;7.07;;;3.25;;
60588;SDS011;46421;48.610;9.334;2023-03-19T05:52:24;7.28;;;3.03;;
60588;SDS011;46421;48.610;9.334;2023-03-19T05:54:50;4.85;;;2.83;;
60588;SDS011;46421;48.610;9.334;2023-03-19T05:57:15;6.57;;;2.97;;
60588;SDS011;46421;48.610;9.334;2023-03-19T05:59:41;6.70;;;2.83;;
60588;SDS011;46421;48.610;9.334;2023-03-19T06:02:06;7.47;;;3.20;;
60588;SDS011;46421;48.610;9.334;2023-03-19T06:04:32;6.60;;;3.08;;
60588;SDS011;46421;48.610;9.334;2023-03-19T06:06:57;6.45;;;2.58;;
60588;SDS011;46421;48.610;9.334;2023-03-19T06:09:23;7.07;;;2.78;;
60588;SDS011;46421;48.610;9.334;2023-03-19T06:11:48;7.18;;;3.15;;
60588;SDS011;46421;48.610;9.334;2023-03-19T06:14:14;6.00;;;2.73;;
60588;SDS011;46421;48.610;9.334;2023-03-19T06:16:39;5.68;;;2.72;;
60588;SDS011;46421;48.610;9.334;2023-03-19T06:19:05;6.10;;;2.35;;
60588;SDS011;46421;48.610;9.334;2023-03-19T06:21:30;6.07;;;2.60;;
60588;SDS011;46421;48.610;9.334;2023-03-19T06:23:56;6.85;;;2.75;;
60588;SDS011;46421;48.610;9.334;2023-03-19T06:26:22;7.50;;;2.75;;
60588;SDS011;46421;48.610;9.334;2023-03-19T06:28:48;7.90;;;3.00;;
60588;SDS011;46421;48.610;9.334;2023-03-19T06:31:13;5.50;;;2.83;;
60588;SDS011;46421;48.610;9.334;2023-03-19T06:33:38;6.97;;;3.07;;
60588;SDS011;46421;48.610;9.334;2023-03-19T06:36:04;6.17;;;2.97;;
60588;SDS011;46421;48.610;9.334;2023-03-19T06:38:29;7.07;;;3.17;;
60588;SDS011;46421;48.610;9.334;2023-03-19T06:40:55;7.68;;;3.55;;
60588;SDS011;46421;48.610;9.334;2023-03-19T06:43:20;6.90;;;3.10;;
60588;SDS011;46421;48.610;9.334;2023-03-19T06:45:46;6.60;;;3.08;;
60588;SDS011;46421;48.610;9.334;2023-03-19T06:48:11;7.82;;;3.47;;
60588;SDS011;46421;48.610;9.334;2023-03-19T06:50:37;6.72;;;2.85;;
60588;SDS011;46421;48.610;9.334;2023-03-19T06:53:02;5.65;;;2.95;;
60588;SDS011;46421;48.610;9.334;2023-03-19T06:55:28;7.20;;;2.85;;
60588;SDS011;46421;48.610;9.334;2023-03-19T06:57:55;9.23;;;3.20;;
60588;SDS011;46421;48.610;9.334;2023-03-19T07:00:20;6.65;;;3.50;;
60588;SDS011;46421;48.610;9.334;2023-03-19T07:02:46;6.80;;;2.67;;
60588;SDS011;46421;48.610;9.334;2023-03-19T07:05:11;7.20;;;3.80;;
60588;SDS011;46421;48.610;9.334;2023-03-19T07:07:37;11.15;;;3.45;;
60588;SDS011;46421;48.610;9.334;2023-03-19T07:10:02;7.05;;;3.60;;
60588;SDS011;46421;48.610;9.334;2023-03-19T07:12:28;7.40;;;3.78;;
60588;SDS011;46421;48.610;9.334;2023-03-19T07:14:53;7.13;;;3.60;;
60588;SDS011;46421;48.610;9.334;2023-03-19T07:17:22;6.18;;;3.13;;
60588;SDS011;46421;48.610;9.334;2023-03-19T07:19:48;7.40;;;3.80;;
60588;SDS011;46421;48.610;9.334;2023-03-19T07:22:14;9.68;;;4.13;;
60588;SDS011;46421;48.610;9.334;2023-03-19T07:24:40;6.50;;;2.97;;
60588;SDS011;46421;48.610;9.334;2023-03-19T07:27:05;7.47;;;3.13;;
60588;SDS011;46421;48.610;9.334;2023-03-19T07:29:31;6.47;;;3.60;;
60588;SDS011;46421;48.610;9.334;2023-03-19T07:31:56;6.53;;;2.93;;
60588;SDS011;46421;48.610;9.334;2023-03-19T07:34:22;8.83;;;3.37;;
60588;SDS011;46421;48.610;9.334;2023-03-19T07:36:47;6.13;;;2.85;;
60588;SDS011;46421;48.610;9.334;2023-03-19T07:39:13;6.60;;;3.00;;
60588;SDS011;46421;48.610;9.334;2023-03-19T07:41:38;7.35;;;3.05;;
60588;SDS011;46421;48.610;9.334;2023-03-19T07:44:04;6.45;;;3.42;;
60588;SDS011;46421;48.610;9.334;2023-03-19T07:46:30;5.72;;;2.67;;
60588;SDS011;46421;48.610;9.334;2023-03-19T07:48:56;6.85;;;2.75;;
60588;SDS011;46421;48.610;9.334;2023-03-19T07:51:21;6.97;;;2.70;;
60588;SDS011;46421;48.610;9.334;2023-03-19T07:53:46;5.10;;;2.83;;
60588;SDS011;46421;48.610;9.334;2023-03-19T07:56:12;5.73;;;2.70;;
60588;SDS011;46421;48.610;9.334;2023-03-19T07:58:37;6.30;;;2.53;;
60588;SDS011;46421;48.610;9.334;2023-03-19T08:01:02;5.35;;;2.72;;
60588;SDS011;46421;48.610;9.334;2023-03-19T08:03:28;9.43;;;3.63;;
60588;SDS011;46421;48.610;9.334;2023-03-19T08:05:53;7.40;;;3.25;;
60588;SDS011;46421;48.610;9.334;2023-03-19T08:08:19;7.35;;;3.50;;
60588;SDS011;46421;48.610;9.334;2023-03-19T08:10:44;6.15;;;3.33;;
60588;SDS011;46421;48.610;9.334;2023-03-19T08:13:11;5.38;;;3.17;;
60588;SDS011;46421;48.610;9.334;2023-03-19T08:15:38;7.97;;;3.25;;
60588;SDS011;46421;48.610;9.334;2023-03-19T08:18:03;6.25;;;3.03;;
60588;SDS011;46421;48.610;9.334;2023-03-19T08:20:30;6.40;;;3.55;;
60588;SDS011;46421;48.610;9.334;2023-03-19T08:22:56;7.20;;;3.70;;
60588;SDS011;46421;48.610;9.334;2023-03-19T08:25:22;7.45;;;3.60;;
60588;SDS011;46421;48.610;9.334;2023-03-19T08:27:48;8.30;;;3.78;;
60588;SDS011;46421;48.610;9.334;2023-03-19T08:30:14;9.93;;;3.33;;
60588;SDS011;46421;48.610;9.334;2023-03-19T08:32:40;10.43;;;3.22;;
60588;SDS011;46421;48.610;9.334;2023-03-19T08:35:06;6.00;;;2.60;;
60588;SDS011;46421;48.610;9.334;2023-03-19T08:37:32;5.95;;;2.63;;
60588;SDS011;46421;48.610;9.334;2023-03-19T08:39:57;5.05;;;2.40;;
60588;SDS011;46421;48.610;9.334;2023-03-19T08:42:23;7.07;;;2.85;;
60588;SDS011;46421;48.610;9.334;2023-03-19T08:44:48;6.25;;;3.00;;
60588;SDS011;46421;48.610;9.334;2023-03-19T08:47:14;6.80;;;2.95;;
60588;SDS011;46421;48.610;9.334;2023-03-19T08:49:40;5.18;;;2.90;;
60588;SDS011;46421;48.610;9.334;2023-03-19T08:52:06;6.50;;;2.45;;
60588;SDS011;46421;48.610;9.334;2023-03-19T08:54:32;6.43;;;3.35;;
60588;SDS011;46421;48.610;9.334;2023-03-19T08:56:58;8.52;;;3.15;;
60588;SDS011;46421;48.610;9.334;2023-03-19T08:59:25;7.57;;;3.05;;
60588;SDS011;46421;48.610;9.334;2023-03-19T09:01:51;6.43;;;3.15;;
60588;SDS011;46421;48.610;9.334;2023-03-19T09:04:16;5.35;;;2.58;;
60588;SDS011;46421;48.610;9.334;2023-03-19T09:06:42;5.45;;;2.70;;
60588;SDS011;46421;48.610;9.334;2023-03-19T09:09:09;5.93;;;2.88;;
60588;SDS011;46421;48.610;9.334;2023-03-19T09:11:34;5.38;;;2.45;;
60588;SDS011;46421;48.610;9.334;2023-03-19T09:14:00;7.50;;;2.70;;
60588;SDS011;46421;48.610;9.334;2023-03-19T09:16:25;4.45;;;2.25;;
60588;SDS011;46421;48.610;9.334;2023-03-19T09:18:51;6.93;;;1.80;;
60588;SDS011;46421;48.610;9.334;2023-03-19T09:21:16;3.38;;;1.45;;
60588;SDS011;46421;48.610;9.334;2023-03-19T09:23:42;4.30;;;1.40;;
60588;SDS011;46421;48.610;9.334;2023-03-19T09:26:07;2.97;;;1.13;;
60588;SDS011;46421;48.610;9.334;2023-03-19T09:28:33;3.03;;;1.10;;
60588;SDS011;46421;48.610;9.334;2023-03-19T09:31:00;2.95;;;1.02;;
60588;SDS011;46421;48.610;9.334;2023-03-19T09:33:31;3.72;;;1.10;;
60588;SDS011;46421;48.610;9.334;2023-03-19T09:35:56;3.35;;;1.10;;
60588;SDS011;46421;48.610;9.334;2023-03-19T09:38:22;2.72;;;1.08;;
60588;SDS011;46421;48.610;9.334;2023-03-19T09:41:11;2.28;;;1.00;;
60588;SDS011;46421;48.610;9.334;2023-03-19T09:43:58;2.47;;;0.98;;
60588;SDS011;46421;48.610;9.334;2023-03-19T09:47:00;3.20;;;1.20;;
60588;SDS011;46421;48.610;9.334;2023-03-19T09:49:39;2.63;;;1.00;;
60588;SDS011;46421;48.610;9.334;2023-03-19T09:52:24;2.33;;;0.93;;
60588;SDS011;46421;48.610;9.334;2023-03-19T09:57:21;4.25;;;1.30;;
60588;SDS011;46421;48.610;9.334;2023-03-19T09:59:46;2.63;;;1.20;;
60588;SDS011;46421;48.610;9.334;2023-03-19T10:05:41;3.20;;;1.10;;
60588;SDS011;46421;48.610;9.334;2023-03-19T10:10:54;3.28;;;1.10;;
60588;SDS011;46421;48.610;9.334;2023-03-19T10:13:32;5.03;;;1.50;;
60588;SDS011;46421;48.610;9.334;2023-03-19T10:16:09;3.63;;;1.40;;
60588;SDS011;46421;48.610;9.334;2023-03-19T10:18:41;3.65;;;1.40;;
60588;SDS011;46421;48.610;9.334;2023-03-19T10:21:15;3.10;;;1.38;;
60588;SDS011;46421;48.610;9.334;2023-03-19T10:23:49;3.42;;;1.58;;
60588;SDS011;46421;48.610;9.334;2023-03-19T10:26:30;3.88;;;1.75;;
60588;SDS011;46421;48.610;9.334;2023-03-19T10:29:18;4.68;;;1.58;;
60588;SDS011;46421;48.610;9.334;2023-03-19T10:31:48;3.65;;;1.00;;
60588;SDS011;46421;48.610;9.334;2023-03-19T10:34:22;5.00;;;1.30;;
60588;SDS011;46421;48.610;9.334;2023-03-19T10:37:02;3.75;;;1.13;;
60588;SDS011;46421;48.610;9.334;2023-03-19T10:39:34;5.88;;;1.38;;
60588;SDS011;46421;48.610;9.334;2023-03-19T10:42:07;5.13;;;1.10;;
60588;SDS011;46421;48.610;9.334;2023-03-19T10:44:48;3.60;;;1.38;;
60588;SDS011;46421;48.610;9.334;2023-03-19T10:47:20;4.60;;;1.67;;
60588;SDS011;46421;48.610;9.334;2023-03-19T10:49:50;3.45;;;1.30;;
60588;SDS011;46421;48.610;9.334;2023-03-19T10:52:16;4.10;;;1.35;;
60588;SDS011;46421;48.610;9.334;2023-03-19T10:54:45;3.53;;;1.40;;
60588;SDS011;46421;48.610;9.334;2023-03-19T10:57:21;3.40;;;1.10;;
60588;SDS011;46421;48.610;9.334;2023-03-19T10:59:49;3.17;;;1.10;;
60588;SDS011;46421;48.610;9.334;2023-03-19T11:02:16;3.38;;;1.20;;
60588;SDS011;46421;48.610;9.334;2023-03-19T11:04:46;5.55;;;1.23;;
60588;SDS011;46421;48.610;9.334;2023-03-19T11:07:12;3.83;;;1.13;;
60588;SDS011;46421;48.610;9.334;2023-03-19T11:09:45;3.90;;;1.23;;
60588;SDS011;46421;48.610;9.334;2023-03-19T11:14:41;3.08;;;1.08;;
60588;SDS011;46421;48.610;9.334;2023-03-19T11:20:04;4.45;;;1.40;;
60588;SDS011;46421;48.610;9.334;2023-03-19T11:27:59;3.08;;;1.20;;
60588;SDS011;46421;48.610;9.334;2023-03-19T11:30:25;3.97;;;1.20;;
60588;SDS011;46421;48.610;9.334;2023-03-19T11:35:31;3.75;;;1.38;;
60588;SDS011;46421;48.610;9.334;2023-03-19T11:38:01;3.55;;;1.10;;
60588;SDS011;46421;48.610;9.334;2023-03-19T11:59:12;2.97;;;1.13;;
60588;SDS011;46421;48.610;9.334;2023-03-19T12:10:53;4.63;;;1.30;;
60588;SDS011;46421;48.610;9.334;2023-03-19T12:16:04;2.85;;;1.05;;
60588;SDS011;46421;48.610;9.334;2023-03-19T12:18:40;3.67;;;1.38;;
60588;SDS011;46421;48.610;9.334;2023-03-19T12:24:05;5.78;;;1.45;;
60588;SDS011;46421;48.610;9.334;2023-03-19T12:31:50;2.83;;;1.10;;
60588;SDS011;46421;48.610;9.334;2023-03-19T12:35:10;3.58;;;1.13;;
60588;SDS011;46421;48.610;9.334;2023-03-19T12:37:28;3.03;;;1.23;;
60588;SDS011;46421;48.610;9.334;2023-03-19T12:40:12;3.38;;;1.10;;
60588;SDS011;46421;48.610;9.334;2023-03-19T12:42:47;2.30;;;1.02;;
60588;SDS011;46421;48.610;9.334;2023-03-19T12:47:56;3.25;;;1.30;;
60588;SDS011;46421;48.610;9.334;2023-03-19T12:50:27;4.15;;;1.25;;
60588;SDS011;46421;48.610;9.334;2023-03-19T12:52:55;1.65;;;0.88;;
60588;SDS011;46421;48.610;9.334;2023-03-19T12:55:47;3.42;;;1.15;;
60588;SDS011;46421;48.610;9.334;2023-03-19T12:58:22;2.60;;;1.02;;
60588;SDS011;46421;48.610;9.334;2023-03-19T13:01:03;2.20;;;0.90;;
60588;SDS011;46421;48.610;9.334;2023-03-19T13:08:47;3.00;;;1.10;;
60588;SDS011;46421;48.610;9.334;2023-03-19T13:16:42;2.42;;;1.10;;
60588;SDS011;46421;48.610;9.334;2023-03-19T13:19:29;2.85;;;1.10;;
60588;SDS011;46421;48.610;9.334;2023-03-19T13:22:07;2.95;;;1.20;;
60588;SDS011;46421;48.610;9.334;2023-03-19T13:24:35;2.83;;;1.20;;
60588;SDS011;46421;48.610;9.334;2023-03-19T13:27:03;3.75;;;1.10;;
60588;SDS011;46421;48.610;9.334;2023-03-19T13:29:32;2.72;;;1.10;;
60588;SDS011;46421;48.610;9.334;2023-03-19T13:32:07;2.30;;;1.10;;
60588;SDS011;46421;48.610;9.334;2023-03-19T13:34:47;3.80;;;1.33;;
60588;SDS011;46421;48.610;9.334;2023-03-19T13:37:17;4.07;;;1.17;;
60588;SDS011;46421;48.610;9.334;2023-03-19T13:39:45;3.10;;;1.20;;
60588;SDS011;46421;48.610;9.334;2023-03-19T13:44:47;2.55;;;1.00;;
60588;SDS011;46421;48.610;9.334;2023-03-19T13:52:40;5.13;;;1.20;;
60588;SDS011;46421;48.610;9.334;2023-03-19T13:57:57;5.28;;;1.10;;
60588;SDS011;46421;48.610;9.334;2023-03-19T14:05:54;3.47;;;1.30;;
60588;SDS011;46421;48.610;9.334;2023-03-19T14:08:22;3.35;;;1.23;;
60588;SDS011;46421;48.610;9.334;2023-03-19T14:11:00;5.15;;;1.30;;
60588;SDS011;46421;48.610;9.334;2023-03-19T14:16:18;4.50;;;1.30;;
60588;SDS011;46421;48.610;9.334;2023-03-19T14:18:51;3.17;;;1.10;;
60588;SDS011;46421;48.610;9.334;2023-03-19T14:26:57;5.65;;;1.80;;
60588;SDS011;46421;48.610;9.334;2023-03-19T14:29:26;3.63;;;1.13;;
60588;SDS011;46421;48.610;9.334;2023-03-19T14:31:54;5.78;;;1.55;;
60588;SDS011;46421;48.610;9.334;2023-03-19T14:34:34;2.83;;;1.10;;
60588;SDS011;46421;48.610;9.334;2023-03-19T14:37:22;3.88;;;1.25;;
60588;SDS011;46421;48.610;9.334;2023-03-19T14:40:11;3.10;;;1.27;;
60588;SDS011;46421;48.610;9.334;2023-03-19T14:46:02;3.95;;;0.93;;
60588;SDS011;46421;48.610;9.334;2023-03-19T14:51:48;5.35;;;1.50;;
60588;SDS011;46421;48.610;9.334;2023-03-19T14:54:27;2.45;;;1.00;;
60588;SDS011;46421;48.610;9.334;2023-03-19T14:57:04;1.95;;;0.90;;
60588;SDS011;46421;48.610;9.334;2023-03-19T14:59:37;3.72;;;1.40;;
60588;SDS011;46421;48.610;9.334;2023-03-19T15:02:04;4.30;;;1.20;;
60588;SDS011;46421;48.610;9.334;2023-03-19T15:04:43;2.33;;;1.10;;
60588;SDS011;46421;48.610;9.334;2023-03-19T15:07:11;2.58;;;0.80;;
60588;SDS011;46421;48.610;9.334;2023-03-19T15:09:44;1.25;;;0.70;;
60588;SDS011;46421;48.610;9.334;2023-03-19T15:17:34;4.88;;;1.33;;
60588;SDS011;46421;48.610;9.334;2023-03-19T15:20:02;4.35;;;1.70;;
60588;SDS011;46421;48.610;9.334;2023-03-19T15:22:37;4.03;;;1.60;;
60588;SDS011;46421;48.610;9.334;2023-03-19T15:25:09;3.20;;;1.38;;
60588;SDS011;46421;48.610;9.334;2023-03-19T15:27:37;3.10;;;1.33;;
60588;SDS011;46421;48.610;9.334;2023-03-19T15:30:08;2.53;;;1.10;;
60588;SDS011;46421;48.610;9.334;2023-03-19T15:32:48;2.50;;;1.05;;
60588;SDS011;46421;48.610;9.334;2023-03-19T15:35:13;2.95;;;1.10;;
60588;SDS011;46421;48.610;9.334;2023-03-19T15:37:39;2.72;;;1.00;;
60588;SDS011;46421;48.610;9.334;2023-03-19T15:40:14;4.70;;;1.58;;
60588;SDS011;46421;48.610;9.334;2023-03-19T15:42:42;3.25;;;1.05;;
60588;SDS011;46421;48.610;9.334;2023-03-19T15:45:11;3.35;;;1.05;;
60588;SDS011;46421;48.610;9.334;2023-03-19T15:47:50;3.78;;;1.10;;
60588;SDS011;46421;48.610;9.334;2023-03-19T15:50:21;4.05;;;1.00;;
60588;SDS011;46421;48.610;9.334;2023-03-19T15:52:50;2.00;;;0.90;;
60588;SDS011;46421;48.610;9.334;2023-03-19T15:55:18;3.83;;;1.15;;
60588;SDS011;46421;48.610;9.334;2023-03-19T15:57:45;2.75;;;1.20;;
60588;SDS011;46421;48.610;9.334;2023-03-19T16:00:11;2.47;;;1.00;;
60588;SDS011;46421;48.610;9.334;2023-03-19T16:02:45;1.70;;;0.70;;
60588;SDS011;46421;48.610;9.334;2023-03-19T16:05:21;2.05;;;0.82;;
60588;SDS011;46421;48.610;9.334;2023-03-19T16:07:49;3.10;;;1.20;;
60588;SDS011;46421;48.610;9.334;2023-03-19T16:10:30;1.98;;;0.80;;
60588;SDS011;46421;48.610;9.334;2023-03-19T16:12:58;2.95;;;1.00;;
60588;SDS011;46421;48.610;9.334;2023-03-19T16:20:47;3.15;;;0.93;;
60588;SDS011;46421;48.610;9.334;2023-03-19T16:23:19;3.30;;;1.05;;
60588;SDS011;46421;48.610;9.334;2023-03-19T16:25:52;2.50;;;1.05;;
60588;SDS011;46421;48.610;9.334;2023-03-19T16:28:19;4.85;;;2.03;;
60588;SDS011;46421;48.610;9.334;2023-03-19T16:30:48;4.53;;;1.70;;
60588;SDS011;46421;48.610;9.334;2023-03-19T16:33:15;2.40;;;1.33;;
60588;SDS011;46421;48.610;9.334;2023-03-19T16:35:41;2.75;;;1.20;;
60588;SDS011;46421;48.610;9.334;2023-03-19T16:38:22;3.33;;;1.25;;
60588;SDS011;46421;48.610;9.334;2023-03-19T16:41:33;2.28;;;0.90;;
60588;SDS011;46421;48.610;9.334;2023-03-19T16:43:36;3.05;;;1.20;;
60588;SDS011;46421;48.610;9.334;2023-03-19T16:46:10;4.13;;;1.90;;
60588;SDS011;46421;48.610;9.334;2023-03-19T16:48:39;3.85;;;1.08;;
60588;SDS011;46421;48.610;9.334;2023-03-19T16:51:15;2.63;;;0.90;;
60588;SDS011;46421;48.610;9.334;2023-03-19T16:53:43;2.42;;;0.98;;
60588;SDS011;46421;48.610;9.334;2023-03-19T16:56:11;3.00;;;1.00;;